sensor_id;sensor_type;location;lat;lon;timestamp;P1;durP1;ratioP1;P2;durP2;ratioP2
79478;SDS011;68943;49.472;17.970;2023-04-09T00:00:02;58.83;;;28.52;;
79478;SDS011;68943;49.472;17.970;2023-04-09T00:02:29;51.70;;;27.08;;
79478;SDS011;68943;49.472;17.970;2023-04-09T00:04:55;55.70;;;27.88;;
79478;SDS011;68943;49.472;17.970;2023-04-09T00:07:21;50.25;;;24.42;;
79478;SDS011;68943;49.472;17.970;2023-04-09T00:09:47;58.38;;;28.50;;
79478;SDS011;68943;49.472;17.970;2023-04-09T00:12:13;59.35;;;28.58;;
79478;SDS011;68943;49.472;17.970;2023-04-09T00:14:39;59.85;;;29.45;;
79478;SDS011;68943;49.472;17.970;2023-04-09T00:17:05;56.90;;;29.00;;
79478;SDS011;68943;49.472;17.970;2023-04-09T00:19:31;54.65;;;26.92;;
79478;SDS011;68943;49.472;17.970;2023-04-09T00:21:57;52.53;;;27.30;;
79478;SDS011;68943;49.472;17.970;2023-04-09T00:24:23;51.67;;;26.10;;
79478;SDS011;68943;49.472;17.970;2023-04-09T00:26:49;61.58;;;29.83;;
79478;SDS011;68943;49.472;17.970;2023-04-09T00:29:17;67.18;;;31.63;;
79478;SDS011;68943;49.472;17.970;2023-04-09T00:31:43;59.90;;;31.92;;
79478;SDS011;68943;49.472;17.970;2023-04-09T00:34:09;63.20;;;30.50;;
79478;SDS011;68943;49.472;17.970;2023-04-09T00:36:35;55.25;;;27.63;;
79478;SDS011;68943;49.472;17.970;2023-04-09T00:39:01;52.33;;;26.85;;
79478;SDS011;68943;49.472;17.970;2023-04-09T00:41:27;54.63;;;29.77;;
79478;SDS011;68943;49.472;17.970;2023-04-09T00:43:54;58.67;;;29.33;;
79478;SDS011;68943;49.472;17.970;2023-04-09T00:46:21;57.53;;;28.73;;
79478;SDS011;68943;49.472;17.970;2023-04-09T00:48:47;54.33;;;26.35;;
79478;SDS011;68943;49.472;17.970;2023-04-09T00:51:13;53.03;;;25.15;;
79478;SDS011;68943;49.472;17.970;2023-04-09T00:53:39;49.60;;;26.23;;
79478;SDS011;68943;49.472;17.970;2023-04-09T00:56:07;50.65;;;27.38;;
79478;SDS011;68943;49.472;17.970;2023-04-09T00:58:34;57.88;;;28.95;;
79478;SDS011;68943;49.472;17.970;2023-04-09T01:01:01;46.70;;;25.88;;
79478;SDS011;68943;49.472;17.970;2023-04-09T01:03:27;50.13;;;25.95;;
79478;SDS011;68943;49.472;17.970;2023-04-09T01:05:55;53.83;;;25.33;;
79478;SDS011;68943;49.472;17.970;2023-04-09T01:08:43;53.17;;;29.58;;
79478;SDS011;68943;49.472;17.970;2023-04-09T01:14:00;50.95;;;24.90;;
79478;SDS011;68943;49.472;17.970;2023-04-09T01:16:30;49.03;;;24.33;;
79478;SDS011;68943;49.472;17.970;2023-04-09T01:19:01;53.17;;;26.10;;
79478;SDS011;68943;49.472;17.970;2023-04-09T01:21:31;49.90;;;25.75;;
79478;SDS011;68943;49.472;17.970;2023-04-09T01:29:17;49.13;;;25.33;;
79478;SDS011;68943;49.472;17.970;2023-04-09T01:31:44;53.50;;;27.88;;
79478;SDS011;68943;49.472;17.970;2023-04-09T01:34:11;50.17;;;24.92;;
79478;SDS011;68943;49.472;17.970;2023-04-09T01:36:38;47.95;;;23.88;;
79478;SDS011;68943;49.472;17.970;2023-04-09T01:39:05;53.72;;;25.13;;
79478;SDS011;68943;49.472;17.970;2023-04-09T01:41:31;51.83;;;25.05;;
79478;SDS011;68943;49.472;17.970;2023-04-09T01:43:59;47.35;;;25.55;;
79478;SDS011;68943;49.472;17.970;2023-04-09T01:46:26;53.47;;;25.60;;
79478;SDS011;68943;49.472;17.970;2023-04-09T01:48:52;46.40;;;23.40;;
79478;SDS011;68943;49.472;17.970;2023-04-09T01:51:18;56.10;;;26.00;;
79478;SDS011;68943;49.472;17.970;2023-04-09T01:53:44;47.40;;;24.85;;
79478;SDS011;68943;49.472;17.970;2023-04-09T01:56:11;59.10;;;27.25;;
79478;SDS011;68943;49.472;17.970;2023-04-09T01:58:37;54.80;;;26.58;;
79478;SDS011;68943;49.472;17.970;2023-04-09T02:01:11;53.45;;;26.50;;
79478;SDS011;68943;49.472;17.970;2023-04-09T02:03:48;56.22;;;28.13;;
79478;SDS011;68943;49.472;17.970;2023-04-09T02:06:17;51.17;;;25.27;;
79478;SDS011;68943;49.472;17.970;2023-04-09T02:08:46;48.78;;;25.65;;
79478;SDS011;68943;49.472;17.970;2023-04-09T02:11:13;47.97;;;24.15;;
79478;SDS011;68943;49.472;17.970;2023-04-09T02:13:39;50.60;;;25.67;;
79478;SDS011;68943;49.472;17.970;2023-04-09T02:16:06;49.20;;;24.23;;
79478;SDS011;68943;49.472;17.970;2023-04-09T02:18:34;48.10;;;24.23;;
79478;SDS011;68943;49.472;17.970;2023-04-09T02:21:00;48.88;;;25.48;;
79478;SDS011;68943;49.472;17.970;2023-04-09T02:23:26;46.50;;;26.88;;
79478;SDS011;68943;49.472;17.970;2023-04-09T02:25:52;51.72;;;26.35;;
79478;SDS011;68943;49.472;17.970;2023-04-09T02:28:18;52.78;;;25.10;;
79478;SDS011;68943;49.472;17.970;2023-04-09T02:30:44;48.28;;;25.75;;
79478;SDS011;68943;49.472;17.970;2023-04-09T02:33:10;49.75;;;24.38;;
79478;SDS011;68943;49.472;17.970;2023-04-09T02:35:36;44.90;;;23.23;;
79478;SDS011;68943;49.472;17.970;2023-04-09T02:38:02;47.60;;;22.90;;
79478;SDS011;68943;49.472;17.970;2023-04-09T02:40:28;43.25;;;23.52;;
79478;SDS011;68943;49.472;17.970;2023-04-09T02:42:55;53.97;;;23.92;;
79478;SDS011;68943;49.472;17.970;2023-04-09T02:45:21;49.78;;;23.98;;
79478;SDS011;68943;49.472;17.970;2023-04-09T02:47:47;47.47;;;25.05;;
79478;SDS011;68943;49.472;17.970;2023-04-09T02:50:13;46.42;;;23.27;;
79478;SDS011;68943;49.472;17.970;2023-04-09T02:52:39;50.50;;;25.65;;
79478;SDS011;68943;49.472;17.970;2023-04-09T02:55:05;47.45;;;24.83;;
79478;SDS011;68943;49.472;17.970;2023-04-09T02:57:32;54.40;;;26.02;;
79478;SDS011;68943;49.472;17.970;2023-04-09T02:59:58;57.28;;;28.30;;
79478;SDS011;68943;49.472;17.970;2023-04-09T03:02:24;53.50;;;27.23;;
79478;SDS011;68943;49.472;17.970;2023-04-09T03:04:50;54.40;;;26.65;;
79478;SDS011;68943;49.472;17.970;2023-04-09T03:07:17;48.63;;;24.08;;
79478;SDS011;68943;49.472;17.970;2023-04-09T03:09:43;42.85;;;23.25;;
79478;SDS011;68943;49.472;17.970;2023-04-09T03:12:09;54.88;;;26.25;;
79478;SDS011;68943;49.472;17.970;2023-04-09T03:14:35;48.25;;;23.15;;
79478;SDS011;68943;49.472;17.970;2023-04-09T03:17:01;45.90;;;22.85;;
79478;SDS011;68943;49.472;17.970;2023-04-09T03:19:27;46.50;;;23.95;;
79478;SDS011;68943;49.472;17.970;2023-04-09T03:21:53;46.28;;;23.25;;
79478;SDS011;68943;49.472;17.970;2023-04-09T03:24:19;49.90;;;23.33;;
79478;SDS011;68943;49.472;17.970;2023-04-09T03:26:45;49.05;;;25.33;;
79478;SDS011;68943;49.472;17.970;2023-04-09T03:29:11;43.20;;;22.17;;
79478;SDS011;68943;49.472;17.970;2023-04-09T03:31:37;43.10;;;23.30;;
79478;SDS011;68943;49.472;17.970;2023-04-09T03:34:03;49.72;;;23.52;;
79478;SDS011;68943;49.472;17.970;2023-04-09T03:36:30;45.08;;;23.08;;
79478;SDS011;68943;49.472;17.970;2023-04-09T03:38:56;48.00;;;25.30;;
79478;SDS011;68943;49.472;17.970;2023-04-09T03:41:24;49.50;;;23.92;;
79478;SDS011;68943;49.472;17.970;2023-04-09T03:43:50;48.45;;;22.77;;
79478;SDS011;68943;49.472;17.970;2023-04-09T03:46:17;47.42;;;23.25;;
79478;SDS011;68943;49.472;17.970;2023-04-09T03:48:43;44.78;;;22.63;;
79478;SDS011;68943;49.472;17.970;2023-04-09T03:51:13;40.83;;;21.05;;
79478;SDS011;68943;49.472;17.970;2023-04-09T03:53:40;44.08;;;21.50;;
79478;SDS011;68943;49.472;17.970;2023-04-09T03:56:06;43.58;;;23.15;;
79478;SDS011;68943;49.472;17.970;2023-04-09T03:58:32;41.20;;;22.48;;
79478;SDS011;68943;49.472;17.970;2023-04-09T04:01:02;42.00;;;20.30;;
79478;SDS011;68943;49.472;17.970;2023-04-09T04:03:28;39.65;;;22.08;;
79478;SDS011;68943;49.472;17.970;2023-04-09T04:06:03;40.72;;;19.98;;
79478;SDS011;68943;49.472;17.970;2023-04-09T04:08:29;38.85;;;19.92;;
79478;SDS011;68943;49.472;17.970;2023-04-09T04:10:55;40.88;;;23.95;;
79478;SDS011;68943;49.472;17.970;2023-04-09T04:13:27;45.38;;;22.92;;
79478;SDS011;68943;49.472;17.970;2023-04-09T04:15:53;41.25;;;21.02;;
79478;SDS011;68943;49.472;17.970;2023-04-09T04:18:19;43.25;;;22.38;;
79478;SDS011;68943;49.472;17.970;2023-04-09T04:20:45;39.63;;;21.38;;
79478;SDS011;68943;49.472;17.970;2023-04-09T04:23:11;43.08;;;25.02;;
79478;SDS011;68943;49.472;17.970;2023-04-09T04:25:41;42.83;;;22.40;;
79478;SDS011;68943;49.472;17.970;2023-04-09T04:28:07;44.97;;;22.25;;
79478;SDS011;68943;49.472;17.970;2023-04-09T04:30:33;42.90;;;21.85;;
79478;SDS011;68943;49.472;17.970;2023-04-09T04:32:59;43.58;;;21.73;;
79478;SDS011;68943;49.472;17.970;2023-04-09T04:35:25;44.30;;;21.40;;
79478;SDS011;68943;49.472;17.970;2023-04-09T04:37:51;43.67;;;23.02;;
79478;SDS011;68943;49.472;17.970;2023-04-09T04:40:17;49.00;;;22.42;;
79478;SDS011;68943;49.472;17.970;2023-04-09T04:42:43;42.45;;;21.63;;
79478;SDS011;68943;49.472;17.970;2023-04-09T04:45:10;42.60;;;21.80;;
79478;SDS011;68943;49.472;17.970;2023-04-09T04:47:36;42.75;;;21.48;;
79478;SDS011;68943;49.472;17.970;2023-04-09T04:50:03;51.15;;;22.38;;
79478;SDS011;68943;49.472;17.970;2023-04-09T04:52:29;36.88;;;19.55;;
79478;SDS011;68943;49.472;17.970;2023-04-09T04:54:55;42.45;;;21.23;;
79478;SDS011;68943;49.472;17.970;2023-04-09T04:57:21;37.85;;;19.75;;
79478;SDS011;68943;49.472;17.970;2023-04-09T04:59:47;41.85;;;21.98;;
79478;SDS011;68943;49.472;17.970;2023-04-09T05:02:13;44.10;;;24.40;;
79478;SDS011;68943;49.472;17.970;2023-04-09T05:04:39;41.38;;;21.85;;
79478;SDS011;68943;49.472;17.970;2023-04-09T05:07:05;43.03;;;24.30;;
79478;SDS011;68943;49.472;17.970;2023-04-09T05:09:31;40.08;;;21.15;;
79478;SDS011;68943;49.472;17.970;2023-04-09T05:11:57;38.08;;;20.88;;
79478;SDS011;68943;49.472;17.970;2023-04-09T05:14:23;35.00;;;20.25;;
79478;SDS011;68943;49.472;17.970;2023-04-09T05:16:49;43.10;;;20.30;;
79478;SDS011;68943;49.472;17.970;2023-04-09T05:19:16;37.17;;;21.13;;
79478;SDS011;68943;49.472;17.970;2023-04-09T05:21:42;35.08;;;20.10;;
79478;SDS011;68943;49.472;17.970;2023-04-09T05:24:08;36.53;;;19.38;;
79478;SDS011;68943;49.472;17.970;2023-04-09T05:26:34;33.17;;;19.55;;
79478;SDS011;68943;49.472;17.970;2023-04-09T05:29:00;32.90;;;18.70;;
79478;SDS011;68943;49.472;17.970;2023-04-09T05:31:26;38.55;;;18.55;;
79478;SDS011;68943;49.472;17.970;2023-04-09T05:33:52;41.70;;;20.23;;
79478;SDS011;68943;49.472;17.970;2023-04-09T05:36:18;35.13;;;18.17;;
79478;SDS011;68943;49.472;17.970;2023-04-09T05:38:45;41.90;;;19.75;;
79478;SDS011;68943;49.472;17.970;2023-04-09T05:41:11;36.38;;;19.45;;
79478;SDS011;68943;49.472;17.970;2023-04-09T05:43:37;34.38;;;17.65;;
79478;SDS011;68943;49.472;17.970;2023-04-09T05:46:03;33.42;;;18.38;;
79478;SDS011;68943;49.472;17.970;2023-04-09T05:48:29;36.97;;;18.67;;
79478;SDS011;68943;49.472;17.970;2023-04-09T05:50:55;36.03;;;19.50;;
79478;SDS011;68943;49.472;17.970;2023-04-09T05:53:21;34.53;;;18.15;;
79478;SDS011;68943;49.472;17.970;2023-04-09T05:55:47;30.33;;;17.33;;
79478;SDS011;68943;49.472;17.970;2023-04-09T05:58:14;33.67;;;17.85;;
79478;SDS011;68943;49.472;17.970;2023-04-09T06:00:40;34.92;;;18.95;;
79478;SDS011;68943;49.472;17.970;2023-04-09T06:03:07;36.17;;;20.15;;
79478;SDS011;68943;49.472;17.970;2023-04-09T06:05:33;41.22;;;22.35;;
79478;SDS011;68943;49.472;17.970;2023-04-09T06:08:00;41.28;;;19.45;;
79478;SDS011;68943;49.472;17.970;2023-04-09T06:10:26;38.58;;;21.20;;
79478;SDS011;68943;49.472;17.970;2023-04-09T06:12:52;40.83;;;21.10;;
79478;SDS011;68943;49.472;17.970;2023-04-09T06:15:19;37.30;;;19.70;;
79478;SDS011;68943;49.472;17.970;2023-04-09T06:17:45;43.35;;;21.80;;
79478;SDS011;68943;49.472;17.970;2023-04-09T06:20:11;41.28;;;22.63;;
79478;SDS011;68943;49.472;17.970;2023-04-09T06:22:37;41.42;;;22.92;;
79478;SDS011;68943;49.472;17.970;2023-04-09T06:25:03;43.50;;;22.02;;
79478;SDS011;68943;49.472;17.970;2023-04-09T06:27:29;42.08;;;23.25;;
79478;SDS011;68943;49.472;17.970;2023-04-09T06:29:55;45.85;;;23.98;;
79478;SDS011;68943;49.472;17.970;2023-04-09T06:32:21;52.92;;;26.30;;
79478;SDS011;68943;49.472;17.970;2023-04-09T06:34:47;48.05;;;26.05;;
79478;SDS011;68943;49.472;17.970;2023-04-09T06:37:13;46.75;;;24.63;;
79478;SDS011;68943;49.472;17.970;2023-04-09T06:39:39;49.80;;;27.33;;
79478;SDS011;68943;49.472;17.970;2023-04-09T06:42:06;45.20;;;25.05;;
79478;SDS011;68943;49.472;17.970;2023-04-09T06:44:32;47.55;;;24.75;;
79478;SDS011;68943;49.472;17.970;2023-04-09T06:46:58;48.42;;;26.17;;
79478;SDS011;68943;49.472;17.970;2023-04-09T06:49:24;49.35;;;26.20;;
79478;SDS011;68943;49.472;17.970;2023-04-09T06:51:50;42.47;;;22.38;;
79478;SDS011;68943;49.472;17.970;2023-04-09T06:56:46;44.15;;;24.00;;
79478;SDS011;68943;49.472;17.970;2023-04-09T06:59:12;46.15;;;23.42;;
79478;SDS011;68943;49.472;17.970;2023-04-09T07:01:38;43.97;;;22.20;;
79478;SDS011;68943;49.472;17.970;2023-04-09T07:04:04;41.20;;;23.08;;
79478;SDS011;68943;49.472;17.970;2023-04-09T07:06:30;39.20;;;21.20;;
79478;SDS011;68943;49.472;17.970;2023-04-09T07:08:56;37.50;;;21.27;;
79478;SDS011;68943;49.472;17.970;2023-04-09T07:11:22;38.17;;;21.27;;
79478;SDS011;68943;49.472;17.970;2023-04-09T07:13:49;33.28;;;17.50;;
79478;SDS011;68943;49.472;17.970;2023-04-09T07:16:15;42.00;;;21.70;;
79478;SDS011;68943;49.472;17.970;2023-04-09T07:18:41;39.63;;;19.98;;
79478;SDS011;68943;49.472;17.970;2023-04-09T07:21:07;35.90;;;19.15;;
79478;SDS011;68943;49.472;17.970;2023-04-09T07:23:33;41.92;;;20.70;;
79478;SDS011;68943;49.472;17.970;2023-04-09T07:26:03;33.97;;;19.70;;
79478;SDS011;68943;49.472;17.970;2023-04-09T07:28:29;33.85;;;17.85;;
79478;SDS011;68943;49.472;17.970;2023-04-09T07:30:56;32.65;;;17.85;;
79478;SDS011;68943;49.472;17.970;2023-04-09T07:33:22;29.73;;;16.40;;
79478;SDS011;68943;49.472;17.970;2023-04-09T07:35:48;35.10;;;19.35;;
79478;SDS011;68943;49.472;17.970;2023-04-09T07:38:14;30.63;;;17.48;;
79478;SDS011;68943;49.472;17.970;2023-04-09T07:40:40;32.67;;;17.30;;
79478;SDS011;68943;49.472;17.970;2023-04-09T07:43:06;31.35;;;18.08;;
79478;SDS011;68943;49.472;17.970;2023-04-09T07:45:32;31.58;;;17.02;;
79478;SDS011;68943;49.472;17.970;2023-04-09T07:47:58;28.40;;;16.88;;
79478;SDS011;68943;49.472;17.970;2023-04-09T07:50:24;31.60;;;17.70;;
79478;SDS011;68943;49.472;17.970;2023-04-09T07:52:51;28.48;;;15.45;;
79478;SDS011;68943;49.472;17.970;2023-04-09T07:55:17;30.50;;;18.83;;
79478;SDS011;68943;49.472;17.970;2023-04-09T07:57:44;32.85;;;18.73;;
79478;SDS011;68943;49.472;17.970;2023-04-09T08:00:10;31.77;;;16.30;;
79478;SDS011;68943;49.472;17.970;2023-04-09T08:02:36;34.30;;;20.33;;
79478;SDS011;68943;49.472;17.970;2023-04-09T08:05:03;31.65;;;18.10;;
79478;SDS011;68943;49.472;17.970;2023-04-09T08:07:29;33.80;;;18.95;;
79478;SDS011;68943;49.472;17.970;2023-04-09T08:09:55;35.85;;;19.50;;
79478;SDS011;68943;49.472;17.970;2023-04-09T08:12:21;36.17;;;21.02;;
79478;SDS011;68943;49.472;17.970;2023-04-09T08:14:47;33.03;;;19.02;;
79478;SDS011;68943;49.472;17.970;2023-04-09T08:17:13;44.03;;;24.05;;
79478;SDS011;68943;49.472;17.970;2023-04-09T08:19:39;41.08;;;20.80;;
79478;SDS011;68943;49.472;17.970;2023-04-09T08:22:05;37.72;;;19.80;;
79478;SDS011;68943;49.472;17.970;2023-04-09T08:24:31;37.28;;;20.77;;
79478;SDS011;68943;49.472;17.970;2023-04-09T08:26:58;36.72;;;18.33;;
79478;SDS011;68943;49.472;17.970;2023-04-09T08:29:25;34.67;;;18.73;;
79478;SDS011;68943;49.472;17.970;2023-04-09T08:31:52;38.67;;;20.83;;
79478;SDS011;68943;49.472;17.970;2023-04-09T08:34:18;35.13;;;20.38;;
79478;SDS011;68943;49.472;17.970;2023-04-09T08:36:46;35.05;;;18.58;;
79478;SDS011;68943;49.472;17.970;2023-04-09T08:39:14;39.90;;;21.77;;
79478;SDS011;68943;49.472;17.970;2023-04-09T08:41:41;35.22;;;18.35;;
79478;SDS011;68943;49.472;17.970;2023-04-09T08:44:08;30.77;;;17.13;;
79478;SDS011;68943;49.472;17.970;2023-04-09T08:46:34;32.70;;;17.33;;
79478;SDS011;68943;49.472;17.970;2023-04-09T08:49:01;31.20;;;16.15;;
79478;SDS011;68943;49.472;17.970;2023-04-09T08:51:27;33.08;;;16.98;;
79478;SDS011;68943;49.472;17.970;2023-04-09T08:54:00;33.60;;;19.73;;
79478;SDS011;68943;49.472;17.970;2023-04-09T08:56:26;32.35;;;18.30;;
79478;SDS011;68943;49.472;17.970;2023-04-09T08:58:53;34.35;;;18.42;;
79478;SDS011;68943;49.472;17.970;2023-04-09T09:01:23;33.15;;;18.35;;
79478;SDS011;68943;49.472;17.970;2023-04-09T09:04:04;27.83;;;16.10;;
79478;SDS011;68943;49.472;17.970;2023-04-09T09:06:31;23.40;;;14.60;;
79478;SDS011;68943;49.472;17.970;2023-04-09T09:08:58;23.15;;;13.52;;
79478;SDS011;68943;49.472;17.970;2023-04-09T09:11:25;22.92;;;12.55;;
79478;SDS011;68943;49.472;17.970;2023-04-09T09:14:05;22.48;;;13.02;;
79478;SDS011;68943;49.472;17.970;2023-04-09T09:16:32;19.52;;;12.23;;
79478;SDS011;68943;49.472;17.970;2023-04-09T09:18:59;21.52;;;11.98;;
79478;SDS011;68943;49.472;17.970;2023-04-09T09:21:25;26.30;;;14.38;;
79478;SDS011;68943;49.472;17.970;2023-04-09T09:23:52;20.55;;;12.13;;
79478;SDS011;68943;49.472;17.970;2023-04-09T09:26:29;23.77;;;14.65;;
79478;SDS011;68943;49.472;17.970;2023-04-09T09:28:56;25.00;;;14.73;;
79478;SDS011;68943;49.472;17.970;2023-04-09T09:31:25;23.95;;;12.93;;
79478;SDS011;68943;49.472;17.970;2023-04-09T09:33:51;22.60;;;13.18;;
79478;SDS011;68943;49.472;17.970;2023-04-09T09:36:30;21.35;;;12.43;;
79478;SDS011;68943;49.472;17.970;2023-04-09T09:38:57;23.05;;;13.18;;
79478;SDS011;68943;49.472;17.970;2023-04-09T09:41:26;20.55;;;12.68;;
79478;SDS011;68943;49.472;17.970;2023-04-09T09:43:52;18.63;;;11.57;;
79478;SDS011;68943;49.472;17.970;2023-04-09T09:46:18;17.45;;;10.73;;
79478;SDS011;68943;49.472;17.970;2023-04-09T09:48:45;24.50;;;13.27;;
79478;SDS011;68943;49.472;17.970;2023-04-09T09:51:12;19.75;;;12.38;;
79478;SDS011;68943;49.472;17.970;2023-04-09T09:53:47;22.33;;;12.38;;
79478;SDS011;68943;49.472;17.970;2023-04-09T09:56:20;23.20;;;13.20;;
79478;SDS011;68943;49.472;17.970;2023-04-09T09:58:55;21.98;;;13.93;;
79478;SDS011;68943;49.472;17.970;2023-04-09T10:01:23;20.58;;;11.10;;
79478;SDS011;68943;49.472;17.970;2023-04-09T10:03:51;16.67;;;10.02;;
79478;SDS011;68943;49.472;17.970;2023-04-09T10:06:17;20.23;;;11.23;;
79478;SDS011;68943;49.472;17.970;2023-04-09T10:08:43;17.80;;;10.20;;
79478;SDS011;68943;49.472;17.970;2023-04-09T10:11:11;16.70;;;10.60;;
79478;SDS011;68943;49.472;17.970;2023-04-09T10:13:42;17.67;;;12.30;;
79478;SDS011;68943;49.472;17.970;2023-04-09T10:16:11;19.13;;;12.35;;
79478;SDS011;68943;49.472;17.970;2023-04-09T10:18:37;15.70;;;9.63;;
79478;SDS011;68943;49.472;17.970;2023-04-09T10:21:08;17.10;;;10.80;;
79478;SDS011;68943;49.472;17.970;2023-04-09T10:23:40;16.88;;;10.45;;
79478;SDS011;68943;49.472;17.970;2023-04-09T10:26:07;17.10;;;10.95;;
79478;SDS011;68943;49.472;17.970;2023-04-09T10:28:34;17.23;;;10.25;;
79478;SDS011;68943;49.472;17.970;2023-04-09T10:31:03;15.77;;;10.68;;
79478;SDS011;68943;49.472;17.970;2023-04-09T10:33:29;15.13;;;10.15;;
79478;SDS011;68943;49.472;17.970;2023-04-09T10:35:59;19.08;;;10.70;;
79478;SDS011;68943;49.472;17.970;2023-04-09T10:40:58;20.25;;;11.82;;
79478;SDS011;68943;49.472;17.970;2023-04-09T10:43:31;24.95;;;14.45;;
79478;SDS011;68943;49.472;17.970;2023-04-09T10:45:58;23.02;;;13.75;;
79478;SDS011;68943;49.472;17.970;2023-04-09T10:48:24;21.58;;;13.27;;
79478;SDS011;68943;49.472;17.970;2023-04-09T10:50:50;22.00;;;13.55;;
79478;SDS011;68943;49.472;17.970;2023-04-09T10:53:20;23.02;;;13.60;;
79478;SDS011;68943;49.472;17.970;2023-04-09T10:55:48;21.83;;;13.48;;
79478;SDS011;68943;49.472;17.970;2023-04-09T10:58:16;23.08;;;13.20;;
79478;SDS011;68943;49.472;17.970;2023-04-09T11:00:43;15.13;;;10.13;;
79478;SDS011;68943;49.472;17.970;2023-04-09T11:03:28;16.88;;;10.73;;
79478;SDS011;68943;49.472;17.970;2023-04-09T11:06:05;19.52;;;12.00;;
79478;SDS011;68943;49.472;17.970;2023-04-09T11:08:34;21.75;;;13.27;;
79478;SDS011;68943;49.472;17.970;2023-04-09T11:11:01;17.60;;;9.93;;
79478;SDS011;68943;49.472;17.970;2023-04-09T11:13:29;18.90;;;13.23;;
79478;SDS011;68943;49.472;17.970;2023-04-09T11:15:56;19.83;;;11.43;;
79478;SDS011;68943;49.472;17.970;2023-04-09T11:18:25;20.05;;;12.32;;
79478;SDS011;68943;49.472;17.970;2023-04-09T11:20:58;20.52;;;12.57;;
79478;SDS011;68943;49.472;17.970;2023-04-09T11:23:24;23.95;;;14.40;;
79478;SDS011;68943;49.472;17.970;2023-04-09T11:25:51;23.02;;;13.85;;
79478;SDS011;68943;49.472;17.970;2023-04-09T11:28:17;22.90;;;13.88;;
79478;SDS011;68943;49.472;17.970;2023-04-09T11:30:44;27.60;;;15.50;;
79478;SDS011;68943;49.472;17.970;2023-04-09T11:35:39;19.90;;;12.95;;
79478;SDS011;68943;49.472;17.970;2023-04-09T11:38:09;16.67;;;9.35;;
79478;SDS011;68943;49.472;17.970;2023-04-09T11:40:35;21.85;;;13.75;;
79478;SDS011;68943;49.472;17.970;2023-04-09T11:43:07;21.92;;;12.65;;
79478;SDS011;68943;49.472;17.970;2023-04-09T11:45:33;24.00;;;15.10;;
79478;SDS011;68943;49.472;17.970;2023-04-09T11:48:00;20.27;;;12.35;;
79478;SDS011;68943;49.472;17.970;2023-04-09T11:50:27;22.13;;;14.52;;
79478;SDS011;68943;49.472;17.970;2023-04-09T11:52:53;20.65;;;13.02;;
79478;SDS011;68943;49.472;17.970;2023-04-09T11:55:26;20.35;;;12.63;;
79478;SDS011;68943;49.472;17.970;2023-04-09T11:57:53;20.88;;;12.65;;
79478;SDS011;68943;49.472;17.970;2023-04-09T12:00:21;21.83;;;13.07;;
79478;SDS011;68943;49.472;17.970;2023-04-09T12:02:49;23.30;;;14.50;;
79478;SDS011;68943;49.472;17.970;2023-04-09T12:05:25;22.50;;;13.75;;
79478;SDS011;68943;49.472;17.970;2023-04-09T12:08:08;25.42;;;15.70;;
79478;SDS011;68943;49.472;17.970;2023-04-09T12:13:01;22.27;;;15.10;;
79478;SDS011;68943;49.472;17.970;2023-04-09T12:15:30;24.63;;;15.43;;
79478;SDS011;68943;49.472;17.970;2023-04-09T12:17:56;21.30;;;14.20;;
79478;SDS011;68943;49.472;17.970;2023-04-09T12:22:52;23.80;;;14.52;;
79478;SDS011;68943;49.472;17.970;2023-04-09T12:25:18;24.45;;;15.13;;
79478;SDS011;68943;49.472;17.970;2023-04-09T12:27:44;25.92;;;15.45;;
79478;SDS011;68943;49.472;17.970;2023-04-09T12:30:10;24.50;;;16.45;;
79478;SDS011;68943;49.472;17.970;2023-04-09T12:32:36;23.77;;;15.23;;
79478;SDS011;68943;49.472;17.970;2023-04-09T12:35:03;22.50;;;15.05;;
79478;SDS011;68943;49.472;17.970;2023-04-09T12:37:29;22.95;;;15.52;;
79478;SDS011;68943;49.472;17.970;2023-04-09T12:39:55;25.92;;;16.83;;
79478;SDS011;68943;49.472;17.970;2023-04-09T12:42:23;25.45;;;15.95;;
79478;SDS011;68943;49.472;17.970;2023-04-09T12:44:49;25.45;;;17.73;;
79478;SDS011;68943;49.472;17.970;2023-04-09T12:47:15;25.58;;;15.68;;
79478;SDS011;68943;49.472;17.970;2023-04-09T12:49:42;20.88;;;14.50;;
79478;SDS011;68943;49.472;17.970;2023-04-09T12:52:10;25.17;;;15.57;;
79478;SDS011;68943;49.472;17.970;2023-04-09T12:54:36;28.33;;;15.93;;
79478;SDS011;68943;49.472;17.970;2023-04-09T12:57:04;23.88;;;14.75;;
79478;SDS011;68943;49.472;17.970;2023-04-09T12:59:30;23.58;;;14.05;;
79478;SDS011;68943;49.472;17.970;2023-04-09T13:01:56;27.60;;;19.45;;
79478;SDS011;68943;49.472;17.970;2023-04-09T13:04:22;23.83;;;14.15;;
79478;SDS011;68943;49.472;17.970;2023-04-09T13:06:48;25.00;;;15.65;;
79478;SDS011;68943;49.472;17.970;2023-04-09T13:09:14;27.73;;;16.58;;
79478;SDS011;68943;49.472;17.970;2023-04-09T13:11:40;22.30;;;13.85;;
79478;SDS011;68943;49.472;17.970;2023-04-09T13:14:06;23.58;;;14.57;;
79478;SDS011;68943;49.472;17.970;2023-04-09T13:16:37;19.17;;;12.82;;
79478;SDS011;68943;49.472;17.970;2023-04-09T13:19:03;21.15;;;12.35;;
79478;SDS011;68943;49.472;17.970;2023-04-09T13:21:30;23.67;;;14.25;;
79478;SDS011;68943;49.472;17.970;2023-04-09T13:23:56;22.17;;;16.42;;
79478;SDS011;68943;49.472;17.970;2023-04-09T13:26:25;26.15;;;13.57;;
79478;SDS011;68943;49.472;17.970;2023-04-09T13:28:53;24.08;;;13.85;;
79478;SDS011;68943;49.472;17.970;2023-04-09T13:31:19;26.08;;;13.90;;
79478;SDS011;68943;49.472;17.970;2023-04-09T13:33:45;21.98;;;14.15;;
79478;SDS011;68943;49.472;17.970;2023-04-09T13:36:11;20.42;;;13.80;;
79478;SDS011;68943;49.472;17.970;2023-04-09T13:38:37;24.48;;;14.65;;
79478;SDS011;68943;49.472;17.970;2023-04-09T13:41:04;24.77;;;15.75;;
79478;SDS011;68943;49.472;17.970;2023-04-09T13:43:30;23.35;;;13.65;;
79478;SDS011;68943;49.472;17.970;2023-04-09T13:45:56;23.60;;;13.30;;
79478;SDS011;68943;49.472;17.970;2023-04-09T13:48:23;20.20;;;13.05;;
79478;SDS011;68943;49.472;17.970;2023-04-09T13:50:49;23.90;;;14.82;;
79478;SDS011;68943;49.472;17.970;2023-04-09T13:53:15;29.25;;;17.13;;
79478;SDS011;68943;49.472;17.970;2023-04-09T13:55:42;26.48;;;16.35;;
79478;SDS011;68943;49.472;17.970;2023-04-09T13:58:08;29.17;;;16.88;;
79478;SDS011;68943;49.472;17.970;2023-04-09T14:00:44;30.30;;;17.50;;
79478;SDS011;68943;49.472;17.970;2023-04-09T14:03:10;30.17;;;19.27;;
79478;SDS011;68943;49.472;17.970;2023-04-09T14:05:38;29.73;;;18.48;;
79478;SDS011;68943;49.472;17.970;2023-04-09T14:08:04;29.42;;;19.50;;
79478;SDS011;68943;49.472;17.970;2023-04-09T14:10:30;30.23;;;19.00;;
79478;SDS011;68943;49.472;17.970;2023-04-09T14:12:56;29.77;;;17.23;;
79478;SDS011;68943;49.472;17.970;2023-04-09T14:15:22;32.40;;;19.00;;
79478;SDS011;68943;49.472;17.970;2023-04-09T14:17:48;31.35;;;18.75;;
79478;SDS011;68943;49.472;17.970;2023-04-09T14:20:14;31.00;;;18.27;;
79478;SDS011;68943;49.472;17.970;2023-04-09T14:22:42;26.50;;;16.50;;
79478;SDS011;68943;49.472;17.970;2023-04-09T14:25:13;32.92;;;22.42;;
79478;SDS011;68943;49.472;17.970;2023-04-09T14:27:39;31.02;;;19.48;;